Terminal Aerodrome Forecast
Issued by NWS Binghamton, NY

Home | Current Version | Previous Version | Text Only | Print | Product List | Glossary On
Versions: 1 2 3 4 5 6 7 8 9 10 11 12 13 14 15 16 17
000
FTUS41 KBGM 202300
TAFAVP
TAF
KAVP 202338Z 2100/2124 20004KT P6SM BKN035 OVC100
     FM210200 VRB03KT P6SM SCT025 BKN050
     FM210800 VRB03KT 5SM BR SCT012 OVC025
     FM211500 22005KT P6SM SCT025 BKN040=

USA.gov is the U.S. government's official web portal to all federal, state and local government web resources and services.